Airfield :
LOGIN :

Register | Disclaimer

   EN    FR    IT 

 










Legend :    VFR   Marginal VFR   IFR   Intensive IFR   Very Intensive IFR
Visi :
Ceiling :
>= 8 km
>= 3000ft
5 to 8 km
1000 to 3000 ft
1500m to 5 km
500 to 1000 ft
800 to 1500m
200 to 500 ft
< 800m
< 200 ft
Symbols :   Thunderstorms  Fog  Heavy snow  Heavy precipitations  Wind > 20 kt
SIGMETs :     Misc.  Thunderstorms  Icing  Turbulence  Mountain Waves  Volcanic Ashes






- Airport Elevation : 665 ft
- IATA code : NOC


EIKN - Connaught / Knock- Ireland West

CURRENT METAR :
  • 092130Z 17011KT 130V210 9999 SCT007 OVC012 05/05 Q1014 NOSIG

EXPIRED METARs :
  • 092100Z 17014KT 9999 SCT009 OVC015 06/05 Q1015 NOSIG
  • 092030Z 17014KT 140V220 9999 BKN009 OVC018 06/06 Q1015 NOSIG
  • 092000Z 18012KT 150V220 9999 -DZ BKN005 OVC010 06/06 Q1016 NOSIG
  • 091930Z 18010KT 150V220 9999 SCT004 BKN010 OVC017 06/06 Q1016 NOSIG
  • 091900Z 17010KT 150V210 9999 SCT008 BKN017 OVC022 06/05 Q1017 NOSIG
  • 091830Z 19011KT 160V220 9999 SCT015 BKN022 06/05 Q1017 NOSIG

TAF AMD TAF EIKN
Valid from the 09 at 19:00 until the 10 at 18:00 UTC


091936Z 0919/1018 18013KT 9999 SCT008 BKN015
TEMPO 0919/0924 -DZ BKN008
BECMG 0920/0922 18015G25KT
PROB30
TEMPO 0920/0924 5000 -RADZ BKN004
BECMG 1000/1002 18018G30KT 5000 -RADZ SCT003 BKN008
TEMPO 1002/1007 18022G35KT
TEMPO 1002/1012 2000 RADZ BR BKN003
PROB40
TEMPO 1003/1011 0500 FG BKN001
BECMG 1007/1009 20022G35KT
TEMPO 1009/1011 22024G40KT
BECMG 1011/1013 28024G40KT 9999 FEW010 SCT025
TEMPO 1012/1018 4000 SHRA BKN010 SCT018CB
BECMG 1013/1015 27018G32KT



MET'MAP, your aeronautical weather chart ! - Copyright ORBIFLY December 2007 - Disclaimer

ORBIFLY MET'MAP TEAM :

Programming & Development : Alexandra Zaïnal
Concept & original design : Baudouin d'Aumeries
Assistance for programming : Marc-Olivier Méhu
Technical & hardware support : Manuel Goepfert

Contact : metmap@orbifly.com




SOURCES & CREDITS :

   NOAA